EGPM/SCS METAR and TAF weather

Enter ICAO airport designator
Station Type Date Time Source
EGPM METAR 2018/01/21 12:20 UTC NOAA

EGPM 211220Z AUTO 14007KT 9999 NCD 01/M01 Q1008


Station Type Date Time Source
EGPM Decoded METAR 2018/01/21 12:20 UTC NOAA

Scatsa / Shetland Island, United Kingdom (EGPM) 60-26N 001-18W
Jan 21, 2018 - 07:20 AM EST / 2018.01.21 1220 UTC
Wind: from the SE (140 degrees) at 8 MPH (7 KT):0
Visibility: greater than 7 mile(s):0
Temperature: 33 F (1 C)
Windchill: 26 F (-3 C):1
Dew Point: 30 F (-1 C)
Relative Humidity: 86%
Pressure (altimeter): 29.77 in. Hg (1008 hPa)
ob: EGPM 211220Z AUTO 14007KT 9999 NCD 01/M01 Q1008
cycle: 12

Station Type Date Time Source
EGPM TAF 2013/04/29 03:39 UTC NOAA

TAF TAF EGPM 290337Z 2903/2915 22005KT 9999 SCT030 PROB30
TEMPO 2903/2906 7000 SHRAGS
BECMG 2906/2909 32015KT PROB40
TEMPO 2906/2915 6000 SHRA SHGS BKN012CB


Example: see airport list